Circle Line Xii — WM8392 — position and weather

sailwx.info

Track history (hours):
 
Tides and Currents Weather Stations Pressure Air Temp Water Temp Dewpoint Dewpoint Depression Visibility Wind Speed Wind Dir Waves Ship Positions

Circle Line Xii

Owner: CIRCLE LINE SIGHTSEEING YACHTS, NEW YORK, NY. More information available from US FCC via Universal Licensing System and Coast Guard Vessel Documentation Center.

Last reported at 2016-Oct-30 20:34 UTC. Time now 2016-Dec-07 16:25 UTC.
Position N 40°46' W 074°00'.
Warning: this ship's position is 37 days out of date.

MMSI: 367032250.

Date/timePositionNaut miles runAvg speedWind from/ knotsBaromVisibWave heightAir tempDewpointWater temp
2016-Oct-30 20:34N 40°46' W 074°00'0 0.0
2016-Oct-30 13:33N 40°46' W 074°00'0 0.0
2016-Oct-30 12:33N 40°46' W 074°00'4 0.3
2016-Oct-30 00:34N 40°42' W 074°00'2 1.7
2016-Oct-29 23:33N 40°42' W 074°02'4 4.3
2016-Oct-29 22:33N 40°46' W 074°00'3 3.3
2016-Oct-29 21:33N 40°43' W 074°01'2 2.1
2016-Oct-29 20:33N 40°41' W 074°03'5 5.3
2016-Oct-29 19:33N 40°46' W 074°00'0 0.0
2016-Oct-29 16:33N 40°46' W 074°00'0 0.0
2016-Oct-29 14:33N 40°46' W 074°00'  
2016-Oct-26 21:33N 40°46' W 074°00'4 0.8
2016-Oct-26 16:33N 40°50' W 073°58'3 3.3
2016-Oct-26 15:31N 40°46' W 073°57'6 6.6
2016-Oct-26 14:33N 40°42' W 074°02'4 2.2
2016-Oct-26 12:33N 40°46' W 074°00'1 0.0
2016-Oct-25 17:33N 40°46' W 074°00'4 2.0
2016-Oct-25 15:33N 40°42' W 073°60'3 0.2
2016-Oct-24 21:33N 40°46' W 074°01'0 0.4
2016-Oct-24 20:33N 40°46' W 074°00'0 0.0
2016-Oct-24 18:33N 40°46' W 074°00'0 0.0
2016-Oct-23 16:33N 40°46' W 074°00'0 0.1
2016-Oct-23 14:33N 40°46' W 074°00'0 0.0
2016-Oct-23 13:33N 40°46' W 074°00'0 0.0
2016-Oct-22 17:33N 40°46' W 074°00'1 0.5
2016-Oct-22 16:33N 40°46' W 074°00'3 1.9
2016-Oct-22 15:08N 40°46' W 073°57'3 1.7
2016-Oct-22 13:33N 40°46' W 074°00'  
Track history (hours):
 
Tides and Currents Weather Stations Pressure Air Temp Water Temp Dewpoint Dewpoint Depression Visibility Wind Speed Wind Dir Waves Ship Positions

Circle Line Xii

Owner: CIRCLE LINE SIGHTSEEING YACHTS, NEW YORK, NY. More information available from US FCC via Universal Licensing System and Coast Guard Vessel Documentation Center.

Last reported at 2016-Oct-30 20:34 UTC. Time now 2016-Dec-07 16:25 UTC.
Position N 40°46' W 074°00'.
Warning: this ship's position is 37 days out of date.

MMSI: 367032250.

Date/timePositionNaut miles runAvg speedWind from/ knotsBaromVisibWave heightAir tempDewpointWater temp
2016-Oct-30 20:34N 40°46' W 074°00'0 0.0
2016-Oct-30 13:33N 40°46' W 074°00'0 0.0
2016-Oct-30 12:33N 40°46' W 074°00'4 0.3
2016-Oct-30 00:34N 40°42' W 074°00'2 1.7
2016-Oct-29 23:33N 40°42' W 074°02'4 4.3
2016-Oct-29 22:33N 40°46' W 074°00'3 3.3
2016-Oct-29 21:33N 40°43' W 074°01'2 2.1
2016-Oct-29 20:33N 40°41' W 074°03'5 5.3
2016-Oct-29 19:33N 40°46' W 074°00'0 0.0
2016-Oct-29 16:33N 40°46' W 074°00'0 0.0
2016-Oct-29 14:33N 40°46' W 074°00'  
2016-Oct-26 21:33N 40°46' W 074°00'4 0.8
2016-Oct-26 16:33N 40°50' W 073°58'3 3.3
2016-Oct-26 15:31N 40°46' W 073°57'6 6.6
2016-Oct-26 14:33N 40°42' W 074°02'4 2.2
2016-Oct-26 12:33N 40°46' W 074°00'1 0.0
2016-Oct-25 17:33N 40°46' W 074°00'4 2.0
2016-Oct-25 15:33N 40°42' W 073°60'3 0.2
2016-Oct-24 21:33N 40°46' W 074°01'0 0.4
2016-Oct-24 20:33N 40°46' W 074°00'0 0.0
2016-Oct-24 18:33N 40°46' W 074°00'0 0.0
2016-Oct-23 16:33N 40°46' W 074°00'0 0.1
2016-Oct-23 14:33N 40°46' W 074°00'0 0.0
2016-Oct-23 13:33N 40°46' W 074°00'0 0.0
2016-Oct-22 17:33N 40°46' W 074°00'1 0.5
2016-Oct-22 16:33N 40°46' W 074°00'3 1.9
2016-Oct-22 15:08N 40°46' W 073°57'3 1.7
2016-Oct-22 13:33N 40°46' W 074°00'  

Dump ship's entire track history